Time;durP1;ratioP1;P1;durP2;ratioP2;P2;SDS_P1;SDS_P2;PMS_P1;PMS_P2;Temp;Humidity;BMP_temperature;BMP_pressure;BME280_temperature;BME280_humidity;BME280_pressure;Samples;Min_cycle;Max_cycle;Signal;HPM_P1;HPM_P2
2023/06/22 00:04:36;;;;;;;12.40;5.90;;;;;;;17.15;85.58;101875.72;10446495;28;20033;-78
2023/06/22 00:09:38;;;;;;;13.00;6.18;;;;;;;17.07;85.82;101869.47;10443082;28;20068;-78
2023/06/22 00:14:39;;;;;;;13.73;6.18;;;;;;;17.06;86.13;101873.03;10442891;28;20075;-77
2023/06/22 00:19:41;;;;;;;16.38;6.35;;;;;;;17.05;86.16;101877.41;10470713;28;20041;-78
2023/06/22 00:24:43;;;;;;;12.82;6.78;;;;;;;17.02;86.53;101877.38;10481809;28;20658;-78
2023/06/22 00:29:44;;;;;;;14.85;6.57;;;;;;;16.98;86.50;101865.03;10439779;28;20044;-78
2023/06/22 00:34:46;;;;;;;10.80;5.65;;;;;;;17.02;86.73;101882.69;10413847;28;20064;-78
2023/06/22 00:39:48;;;;;;;13.90;6.53;;;;;;;16.96;86.87;101857.09;10476387;28;20070;-77
2023/06/22 00:44:49;;;;;;;12.80;5.28;;;;;;;17.02;87.11;101861.50;10458716;28;20071;-77
2023/06/22 00:49:51;;;;;;;9.65;5.18;;;;;;;17.04;87.04;101858.88;10481056;28;20098;-77
2023/06/22 00:54:53;;;;;;;13.15;6.30;;;;;;;16.94;86.81;101860.59;10471524;28;20745;-77
2023/06/22 00:59:55;;;;;;;12.65;5.63;;;;;;;16.86;87.27;101849.91;10479155;28;20059;-78
2023/06/22 01:04:56;;;;;;;14.18;6.95;;;;;;;16.85;87.40;101863.13;10438164;28;20667;-78
2023/06/22 01:10:16;;;;;;;10.88;5.65;;;;;;;16.77;87.53;101853.38;10447318;28;20076;-77
2023/06/22 01:15:24;;;;;;;15.85;6.35;;;;;;;16.77;87.63;101855.13;10451008;28;20072;-78
2023/06/22 01:20:28;;;;;;;12.32;6.05;;;;;;;16.77;87.69;101850.72;10448878;28;20072;-78
2023/06/22 01:25:47;;;;;;;13.30;7.47;;;;;;;16.78;87.85;101846.31;10450822;28;20041;-77
2023/06/22 01:31:04;;;;;;;11.60;6.63;;;;;;;16.74;87.79;101840.13;10441233;28;20052;-77
2023/06/22 01:36:06;;;;;;;14.52;7.00;;;;;;;16.69;88.04;101841.81;10448605;28;20566;-78
2023/06/22 01:41:09;;;;;;;14.95;7.50;;;;;;;16.67;88.04;101842.69;10449833;28;20068;-77
2023/06/22 01:46:11;;;;;;;18.15;7.63;;;;;;;16.65;88.17;101834.75;10447818;28;20056;-77
2023/06/22 01:51:13;;;;;;;13.00;7.40;;;;;;;16.61;88.28;101810.03;10448351;28;20048;-78
2023/06/22 01:56:18;;;;;;;13.80;6.97;;;;;;;16.57;88.35;101825.84;10430785;28;20072;-77
2023/06/22 02:01:50;;;;;;;11.80;6.60;;;;;;;16.51;88.34;101823.16;10431431;28;20108;-78
2023/06/22 02:06:56;;;;;;;18.98;7.90;;;;;;;16.39;88.32;101823.94;10451463;28;20048;-78
2023/06/22 02:12:00;;;;;;;12.88;7.43;;;;;;;16.34;88.63;101834.47;10469723;28;20072;-77
2023/06/22 02:17:04;;;;;;;14.85;7.70;;;;;;;16.30;88.68;101827.34;10475609;28;20052;-77
2023/06/22 02:22:06;;;;;;;15.95;8.00;;;;;;;16.18;88.62;101833.44;10438912;28;20128;-78
2023/06/22 02:27:07;;;;;;;15.15;7.70;;;;;;;16.12;88.86;101829.81;10443296;28;20072;-78
2023/06/22 02:32:10;;;;;;;14.25;7.20;;;;;;;16.07;88.84;101840.34;10441254;28;20053;-77
2023/06/22 02:37:14;;;;;;;13.15;7.53;;;;;;;15.98;89.08;101832.31;10447394;28;20738;-77
2023/06/22 02:42:20;;;;;;;12.18;7.30;;;;;;;15.99;89.01;101832.34;10461373;28;20135;-78
2023/06/22 02:47:22;;;;;;;13.45;7.20;;;;;;;15.86;89.16;101833.06;10470102;28;20051;-78
2023/06/22 02:52:25;;;;;;;15.40;6.13;;;;;;;15.84;89.39;101837.44;10478567;28;20067;-78
2023/06/22 02:57:26;;;;;;;12.25;6.28;;;;;;;15.81;89.55;101835.66;10483156;28;20043;-78
2023/06/22 03:02:28;;;;;;;15.10;6.68;;;;;;;15.81;89.49;101840.94;10460893;28;20052;-78
2023/06/22 03:07:30;;;;;;;13.88;6.57;;;;;;;15.75;89.56;101832.91;10445043;28;20594;-77
2023/06/22 03:12:32;;;;;;;15.80;7.75;;;;;;;15.70;89.59;101834.59;10445481;28;20126;-78
2023/06/22 03:17:35;;;;;;;15.93;7.70;;;;;;;15.74;89.68;101842.56;10428105;28;20048;-78
2023/06/22 03:22:41;;;;;;;14.77;7.47;;;;;;;15.70;89.83;101845.13;10428798;28;20048;-77
2023/06/22 03:27:45;;;;;;;12.55;6.53;;;;;;;15.65;89.87;101826.59;10445406;28;20127;-78
2023/06/22 03:32:48;;;;;;;12.43;6.95;;;;;;;15.72;89.90;101839.03;10445086;28;20073;-78
2023/06/22 03:37:50;;;;;;;12.75;7.15;;;;;;;15.68;90.02;101852.16;10445145;28;20099;-78
2023/06/22 03:42:51;;;;;;;15.70;7.68;;;;;;;15.73;90.21;101846.09;10459908;28;20589;-78
2023/06/22 03:47:53;;;;;;;14.18;6.97;;;;;;;15.82;90.23;101849.72;10474002;28;20861;-78
2023/06/22 03:52:55;;;;;;;17.80;9.07;;;;;;;15.87;90.36;101850.69;10452125;28;20586;-78
2023/06/22 03:57:57;;;;;;;16.38;8.93;;;;;;;15.97;90.32;101863.09;10438505;28;20063;-78
2023/06/22 04:02:58;;;;;;;16.55;8.95;;;;;;;16.03;90.34;101865.84;10454542;28;20413;-78
2023/06/22 04:08:01;;;;;;;18.10;8.73;;;;;;;16.07;90.29;101850.91;10471326;28;20048;-78
2023/06/22 04:13:02;;;;;;;16.33;8.57;;;;;;;16.17;90.43;101867.72;10465592;28;20061;-78
2023/06/22 04:18:04;;;;;;;19.25;10.68;;;;;;;16.21;90.42;101862.53;10464120;28;20045;-78
2023/06/22 04:23:06;;;;;;;16.73;8.68;;;;;;;16.27;90.51;101859.03;10456209;28;20076;-78
2023/06/22 04:28:12;;;;;;;16.70;8.85;;;;;;;16.34;90.36;101860.00;10453634;28;20060;-78
2023/06/22 04:33:15;;;;;;;17.63;10.27;;;;;;;16.38;90.42;101862.69;10461617;28;20568;-78
2023/06/22 04:38:16;;;;;;;19.55;9.73;;;;;;;16.46;90.40;101859.25;10463735;28;20085;-79
2023/06/22 04:43:18;;;;;;;18.50;8.77;;;;;;;16.54;90.29;101860.19;10465973;28;20128;-78
2023/06/22 04:48:20;;;;;;;18.77;8.52;;;;;;;16.56;90.22;101858.47;10450041;28;20483;-78
2023/06/22 04:53:21;;;;;;;17.15;9.00;;;;;;;16.68;90.04;101858.59;10459628;28;20047;-78
2023/06/22 04:58:28;;;;;;;15.45;8.98;;;;;;;16.80;89.99;101855.16;10465965;28;20144;-78
2023/06/22 05:03:30;;;;;;;20.25;8.95;;;;;;;16.87;89.48;101853.47;10459035;28;20813;-78
2023/06/22 05:08:32;;;;;;;15.90;9.55;;;;;;;16.90;89.14;101858.78;10441302;28;20079;-76
2023/06/22 05:13:34;;;;;;;16.55;8.38;;;;;;;16.88;88.60;101849.97;10439454;28;20057;-76
2023/06/22 05:18:38;;;;;;;17.17;8.50;;;;;;;17.01;88.32;101849.19;10450574;28;20122;-76
2023/06/22 05:23:40;;;;;;;13.18;6.72;;;;;;;17.05;88.00;101845.66;10427801;28;20140;-75
2023/06/22 05:28:45;;;;;;;21.67;9.55;;;;;;;17.13;87.62;101853.69;10422208;28;20053;-76
2023/06/22 05:33:48;;;;;;;16.83;8.75;;;;;;;17.15;87.42;101846.63;10432986;28;20140;-76
2023/06/22 05:38:51;;;;;;;12.05;7.22;;;;;;;17.07;87.03;101856.25;10438773;28;20506;-76
2023/06/22 05:43:54;;;;;;;12.15;6.90;;;;;;;17.12;86.88;101841.31;10452082;28;20536;-77
2023/06/22 05:48:55;;;;;;;14.95;7.53;;;;;;;17.34;86.53;101846.72;10443646;28;20083;-78
2023/06/22 05:53:57;;;;;;;13.55;7.78;;;;;;;17.64;86.11;101843.38;10444629;28;20053;-78
2023/06/22 05:58:59;;;;;;;13.93;7.53;;;;;;;18.00;85.45;101839.13;10452220;28;20103;-78
2023/06/22 06:04:03;;;;;;;14.57;6.28;;;;;;;18.14;84.05;101840.03;10445354;28;20041;-78
2023/06/22 06:09:07;;;;;;;10.95;6.18;;;;;;;18.34;83.37;101847.16;10463190;28;20045;-78
2023/06/22 06:14:09;;;;;;;15.32;7.03;;;;;;;18.42;82.24;101850.72;10495991;28;20110;-76
2023/06/22 06:19:10;;;;;;;16.98;7.30;;;;;;;18.62;81.54;101847.19;10451764;28;20045;-76
2023/06/22 06:24:12;;;;;;;13.75;6.88;;;;;;;18.78;80.97;101846.31;10479997;28;20049;-77
2023/06/22 06:29:16;;;;;;;12.68;7.13;;;;;;;19.07;80.15;101833.03;10434714;28;20140;-76
2023/06/22 06:34:17;;;;;;;11.88;6.35;;;;;;;19.39;79.49;101844.47;10467368;28;20129;-77
2023/06/22 06:39:20;;;;;;;14.23;6.95;;;;;;;19.68;79.36;101843.50;10438832;28;20061;-76
2023/06/22 06:44:22;;;;;;;11.38;6.05;;;;;;;20.10;77.99;101849.53;10467746;28;20061;-76
2023/06/22 06:49:23;;;;;;;;;;;;;;;20.50;76.77;101849.28;10447285;28;20172;-76
2023/06/22 06:54:25;;;;;;;11.40;5.65;;;;;;;21.06;75.76;101846.16;10450127;28;21394;-77
2023/06/22 06:59:29;;;;;;;11.35;5.30;;;;;;;21.41;74.14;101844.91;10443999;28;20091;-76
2023/06/22 07:04:30;;;;;;;9.70;5.15;;;;;;;21.80;72.26;101848.03;10458815;28;20506;-76
2023/06/22 07:09:32;;;;;;;13.10;4.72;;;;;;;22.02;70.92;101862.88;10443538;28;20776;-76
2023/06/22 07:14:33;;;;;;;9.95;4.95;;;;;;;22.31;69.71;101847.31;10441943;28;20045;-76
2023/06/22 07:19:35;;;;;;;8.82;4.38;;;;;;;22.22;69.21;101846.56;10446981;28;20047;-78
2023/06/22 07:24:37;;;;;;;8.52;3.47;;;;;;;22.78;68.12;101841.25;10452905;28;20059;-79
2023/06/22 07:29:43;;;;;;;9.50;4.38;;;;;;;23.22;66.90;101840.53;10450798;28;20045;-79
2023/06/22 07:34:44;;;;;;;8.07;3.35;;;;;;;23.54;65.42;101839.91;10441495;28;20045;-78
2023/06/22 07:39:46;;;;;;;8.70;4.63;;;;;;;23.46;64.52;101837.38;10452774;28;20049;-79
2023/06/22 07:44:47;;;;;;;6.88;3.58;;;;;;;23.85;64.46;101835.69;10448519;28;20051;-78
2023/06/22 07:49:49;;;;;;;7.50;3.15;;;;;;;24.23;63.60;101837.53;10442837;28;20044;-78
2023/06/22 07:54:51;;;;;;;8.55;3.28;;;;;;;24.26;62.03;101845.50;10449251;28;20053;-79
2023/06/22 07:59:52;;;;;;;10.65;3.58;;;;;;;24.33;61.61;101831.03;10452082;28;20053;-79
2023/06/22 08:04:54;;;;;;;10.48;3.47;;;;;;;24.48;61.07;101819.06;10453282;28;20059;-79
2023/06/22 08:10:16;;;;;;;5.43;2.28;;;;;;;24.94;60.13;101819.72;10444423;28;20045;-78
2023/06/22 08:15:18;;;;;;;5.72;2.75;;;;;;;25.39;59.21;101821.22;10451225;28;20069;-78
2023/06/22 08:20:20;;;;;;;6.57;2.28;;;;;;;25.68;58.27;101798.88;10454840;28;20114;-78
2023/06/22 08:25:22;;;;;;;5.85;2.85;;;;;;;25.81;57.31;101811.94;10457309;28;20048;-78
2023/06/22 08:30:24;;;;;;;;;;;;;;;25.44;57.37;101808.53;10449352;28;20499;-79
2023/06/22 08:35:26;;;;;;;6.10;2.72;;;;;;;25.46;57.12;101809.41;10482612;28;19921;-78
2023/06/22 08:40:29;;;;;;;6.60;2.90;;;;;;;25.79;57.14;101803.91;10448709;28;20538;-79
2023/06/22 08:45:31;;;;;;;8.02;3.00;;;;;;;25.51;56.70;101804.75;10448712;28;20052;-79
2023/06/22 08:50:33;;;;;;;7.70;2.72;;;;;;;25.30;56.89;101800.91;10448822;28;20482;-79
2023/06/22 08:55:35;;;;;;;5.07;2.65;;;;;;;25.02;57.18;101806.13;10447225;28;20055;-78
2023/06/22 09:00:37;;;;;;;7.63;2.80;;;;;;;24.98;57.61;101799.06;10448656;28;20073;-78
2023/06/22 09:05:39;;;;;;;8.73;2.78;;;;;;;25.31;57.32;101796.41;10447996;28;20047;-78
2023/06/22 09:10:40;;;;;;;5.65;2.50;;;;;;;25.90;57.90;101792.88;10447834;28;20707;-79
2023/06/22 09:15:42;;;;;;;7.07;2.70;;;;;;;26.24;56.36;101786.44;10448272;28;20052;-79
2023/06/22 09:20:45;;;;;;;4.45;1.90;;;;;;;26.32;55.07;101780.81;10448661;28;20057;-79
2023/06/22 09:25:47;;;;;;;3.75;1.80;;;;;;;26.41;54.45;101777.84;10443938;28;20041;-79
2023/06/22 09:30:49;;;;;;;4.40;1.83;;;;;;;26.68;53.65;101770.69;10448577;28;20055;-79
2023/06/22 09:35:51;;;;;;;5.38;2.30;;;;;;;26.83;53.42;101758.53;10461569;28;20044;-79
2023/06/22 09:40:53;;;;;;;7.20;1.98;;;;;;;26.94;52.04;101759.00;10467576;28;20056;-79
2023/06/22 09:45:54;;;;;;;3.70;1.40;;;;;;;27.34;51.94;101762.06;10456105;28;20048;-79
2023/06/22 09:50:56;;;;;;;6.07;2.30;;;;;;;27.76;50.38;101757.72;10454226;28;20037;-79
2023/06/22 09:55:58;;;;;;;4.82;2.15;;;;;;;27.89;49.93;101748.22;10454355;28;20051;-78
2023/06/22 10:00:59;;;;;;;4.72;2.05;;;;;;;28.23;49.63;101746.88;10457651;28;20055;-79
2023/06/22 10:06:02;;;;;;;3.72;1.85;;;;;;;27.77;49.48;101744.22;10454954;28;20631;-79
2023/06/22 10:11:04;;;;;;;4.18;1.70;;;;;;;28.17;49.84;101728.28;10463770;28;20059;-78
2023/06/22 10:16:06;;;;;;;3.88;1.88;;;;;;;28.23;49.53;101730.72;10456493;28;20041;-79
2023/06/22 10:21:09;;;;;;;4.80;2.03;;;;;;;28.68;49.11;101723.44;10456719;28;20094;-78
2023/06/22 10:26:10;;;;;;;5.90;2.50;;;;;;;27.96;49.25;101728.25;10458427;28;20045;-78
2023/06/22 10:31:12;;;;;;;5.70;1.98;;;;;;;27.62;49.51;101726.91;10455665;28;20045;-79
2023/06/22 10:36:13;;;;;;;8.13;3.08;;;;;;;27.59;49.63;101712.69;10454124;28;20051;-79
2023/06/22 10:41:16;;;;;;;5.13;2.47;;;;;;;27.86;50.14;101716.06;10456039;28;20053;-79
2023/06/22 10:46:18;;;;;;;6.70;2.53;;;;;;;27.86;49.78;101716.06;10427756;28;20128;-78
2023/06/22 10:51:20;;;;;;;6.63;2.55;;;;;;;28.28;50.01;101711.69;10447815;28;20049;-79
2023/06/22 10:56:22;;;;;;;5.13;2.50;;;;;;;28.50;49.52;101707.13;10426622;28;20041;-78
2023/06/22 11:01:23;;;;;;;4.28;2.25;;;;;;;28.84;49.38;101699.38;10438762;28;20136;-78
2023/06/22 11:06:28;;;;;;;5.82;2.63;;;;;;;29.03;48.24;101702.97;10437352;28;20136;-77
2023/06/22 11:11:30;;;;;;;4.78;2.38;;;;;;;28.79;48.57;101704.09;10437367;28;20079;-77
2023/06/22 11:16:32;;;;;;;6.13;3.03;;;;;;;28.82;48.55;101690.50;10448088;28;20549;-77
2023/06/22 11:21:33;;;;;;;4.05;2.15;;;;;;;28.70;48.79;101694.59;10440037;28;20049;-78
2023/06/22 11:26:35;;;;;;;5.85;2.58;;;;;;;29.17;48.68;101677.19;10435533;28;20594;-77
2023/06/22 11:31:38;;;;;;;4.97;2.53;;;;;;;28.43;48.48;101669.75;10455735;28;20139;-79
2023/06/22 11:36:40;;;;;;;5.18;2.25;;;;;;;28.61;48.80;101660.00;10432420;28;20053;-77
2023/06/22 11:41:42;;;;;;;4.80;2.40;;;;;;;28.37;49.33;101660.09;10437003;28;20120;-77
2023/06/22 11:46:43;;;;;;;7.03;2.85;;;;;;;28.24;49.37;101657.09;10444923;28;20047;-77
2023/06/22 11:51:45;;;;;;;5.55;2.50;;;;;;;27.74;49.18;101662.75;10445443;28;20164;-77
2023/06/22 11:56:47;;;;;;;5.40;2.45;;;;;;;27.53;50.70;101660.00;10445310;28;20479;-77
2023/06/22 12:01:51;;;;;;;6.15;2.65;;;;;;;27.08;50.81;101664.44;10443840;28;20045;-76
2023/06/22 12:06:52;;;;;;;5.10;2.33;;;;;;;27.11;51.12;101652.66;10440556;28;20091;-75
2023/06/22 12:11:54;;;;;;;5.25;2.20;;;;;;;27.17;51.85;101658.69;10440911;28;20232;-77
2023/06/22 12:16:55;;;;;;;5.60;2.22;;;;;;;27.14;52.20;101648.06;10439007;28;20167;-77
2023/06/22 12:21:57;;;;;;;5.90;2.45;;;;;;;26.89;52.15;101642.75;10438703;28;20059;-77
2023/06/22 12:26:59;;;;;;;5.50;2.67;;;;;;;26.58;52.26;101638.47;10441800;28;20045;-77
2023/06/22 12:32:00;;;;;;;5.90;2.38;;;;;;;26.50;52.91;101619.09;10441506;28;20672;-77
2023/06/22 12:37:02;;;;;;;8.45;3.15;;;;;;;26.49;53.03;101614.66;10442231;28;20093;-77
2023/06/22 12:42:04;;;;;;;7.50;2.92;;;;;;;26.21;53.52;101604.94;10441260;28;20477;-77
2023/06/22 12:47:06;;;;;;;6.68;2.45;;;;;;;26.33;54.08;101589.28;10440041;28;20057;-77
2023/06/22 12:52:11;;;;;;;7.28;2.70;;;;;;;26.15;54.32;101580.09;10439303;28;20084;-77
2023/06/22 12:57:12;;;;;;;6.57;3.10;;;;;;;26.17;54.72;101579.13;10440670;28;20168;-76
2023/06/22 13:02:14;;;;;;;9.32;3.83;;;;;;;26.54;54.75;101582.25;10440879;28;20475;-77
2023/06/22 13:07:16;;;;;;;6.13;2.70;;;;;;;26.74;54.28;101577.03;10447751;28;20053;-77
2023/06/22 13:12:24;;;;;;;4.82;2.55;;;;;;;26.74;54.16;101578.88;10446773;28;20064;-77
2023/06/22 13:17:25;;;;;;;5.95;2.70;;;;;;;26.76;53.99;101577.00;10450114;28;20524;-77
2023/06/22 13:22:42;;;;;;;5.90;2.20;;;;;;;26.69;54.78;101570.09;10417053;28;20112;-77
2023/06/22 13:27:44;;;;;;;6.05;2.67;;;;;;;26.57;54.79;101572.28;10418666;28;20044;-77
2023/06/22 13:32:46;;;;;;;6.75;3.00;;;;;;;26.59;55.17;101565.03;10423696;28;20076;-77
2023/06/22 13:37:47;;;;;;;5.47;2.83;;;;;;;26.29;55.37;101565.25;10422010;28;20052;-77
2023/06/22 13:42:49;;;;;;;5.00;2.67;;;;;;;26.20;55.29;101562.03;10409694;28;21978;-76
2023/06/22 13:47:51;;;;;;;6.38;2.70;;;;;;;26.08;55.05;101563.34;10414425;28;20640;-77
2023/06/22 13:52:52;;;;;;;7.30;2.92;;;;;;;26.03;55.59;101562.63;10427538;28;20036;-75
2023/06/22 13:57:54;;;;;;;6.00;2.90;;;;;;;26.17;56.27;101559.47;10444590;28;20037;-75
2023/06/22 14:02:56;;;;;;;5.50;2.50;;;;;;;26.10;56.06;101556.97;10445706;28;20098;-75
2023/06/22 14:07:57;;;;;;;5.15;2.90;;;;;;;25.86;56.25;101539.91;10424678;28;20132;-76
2023/06/22 14:13:00;;;;;;;6.43;2.53;;;;;;;25.87;56.90;101533.63;10396621;28;20072;-76
2023/06/22 14:18:01;;;;;;;6.20;2.80;;;;;;;25.82;57.00;101519.50;10428278;28;20036;-74
2023/06/22 14:23:03;;;;;;;7.22;2.75;;;;;;;25.72;57.41;101518.06;10432193;28;20053;-77
2023/06/22 14:28:05;;;;;;;7.65;2.90;;;;;;;25.54;58.76;101514.22;10432772;28;20087;-75
2023/06/22 14:33:06;;;;;;;5.60;2.55;;;;;;;25.38;60.42;101513.84;10438072;28;20071;-76
2023/06/22 14:38:08;;;;;;;7.93;3.10;;;;;;;25.17;62.66;101504.69;10433633;28;20499;-76
2023/06/22 14:43:09;;;;;;;5.72;2.65;;;;;;;24.92;64.14;101509.94;10421018;28;20045;-76
2023/06/22 14:48:11;;;;;;;5.90;2.67;;;;;;;24.67;64.82;101502.69;10420098;28;20065;-76
2023/06/22 14:53:14;;;;;;;6.07;3.00;;;;;;;24.50;66.26;101495.13;10435346;28;20045;-76
2023/06/22 14:58:15;;;;;;;6.07;2.70;;;;;;;24.20;67.37;101483.53;10428261;28;20473;-76
2023/06/22 15:03:21;;;;;;;6.15;2.78;;;;;;;23.94;68.30;101477.97;10439045;28;20154;-76
2023/06/22 15:08:24;;;;;;;7.05;2.97;;;;;;;23.74;69.49;101469.63;10438982;28;20068;-76
2023/06/22 15:13:26;;;;;;;5.53;2.63;;;;;;;23.64;70.39;101474.31;10441136;28;20533;-76
2023/06/22 15:18:27;;;;;;;6.07;2.35;;;;;;;23.49;71.24;101464.91;10442683;28;20403;-77
2023/06/22 15:23:30;;;;;;;4.50;2.10;;;;;;;23.30;71.70;101454.72;10443238;28;20060;-75
2023/06/22 15:28:33;;;;;;;5.45;2.13;;;;;;;23.15;71.82;101438.19;10442846;28;20095;-76
2023/06/22 15:33:36;;;;;;;7.13;2.50;;;;;;;23.00;72.32;101442.97;10436137;28;20072;-76
2023/06/22 15:38:38;;;;;;;5.93;2.47;;;;;;;22.96;72.74;101438.59;10433271;28;20431;-76
2023/06/22 15:43:40;;;;;;;6.00;2.67;;;;;;;22.90;73.74;101444.09;10419033;28;20065;-76
2023/06/22 15:48:43;;;;;;;7.15;2.50;;;;;;;22.66;73.93;101446.41;10444938;28;20210;-77
2023/06/22 15:53:45;;;;;;;6.28;2.13;;;;;;;22.55;74.21;101443.13;10428484;28;20564;-77
2023/06/22 15:58:46;;;;;;;4.05;2.33;;;;;;;22.44;74.67;101427.34;10407413;28;20052;-76
2023/06/22 16:03:51;;;;;;;5.00;2.05;;;;;;;22.34;75.07;101402.66;10427463;28;20056;-76
2023/06/22 16:08:53;;;;;;;5.68;2.35;;;;;;;22.08;75.04;101395.19;10444135;28;20072;-77
2023/06/22 16:13:54;;;;;;;7.13;2.55;;;;;;;21.93;75.36;101380.38;10445041;28;20044;-76
2023/06/22 16:18:56;;;;;;;6.85;2.85;;;;;;;21.88;76.69;101376.94;10446133;28;20107;-78
2023/06/22 16:23:57;;;;;;;4.95;2.40;;;;;;;21.83;77.28;101366.38;10446410;28;20131;-78
2023/06/22 16:28:59;;;;;;;5.88;2.15;;;;;;;21.75;77.39;101364.78;10445090;28;20037;-77
2023/06/22 16:34:02;;;;;;;5.13;2.10;;;;;;;21.65;77.54;101350.78;10443753;28;20495;-77
2023/06/22 16:39:04;;;;;;;4.20;2.00;;;;;;;21.57;77.83;101326.94;10442984;28;20137;-76
2023/06/22 16:44:06;;;;;;;7.15;2.58;;;;;;;21.59;77.60;101314.47;10440832;28;20124;-77
2023/06/22 16:49:08;;;;;;;5.03;2.38;;;;;;;21.65;77.48;101306.34;10440212;28;20128;-78
2023/06/22 16:54:11;;;;;;;6.18;2.47;;;;;;;21.64;76.86;101307.25;10441995;28;20045;-76
2023/06/22 16:59:14;;;;;;;5.40;2.47;;;;;;;21.63;76.52;101318.84;10436831;28;20057;-77
2023/06/22 17:04:20;;;;;;;4.55;2.00;;;;;;;21.51;75.98;101327.06;10432707;28;20088;-77
2023/06/22 17:09:26;;;;;;;3.40;1.70;;;;;;;21.39;75.40;101325.47;10434316;28;20051;-77
2023/06/22 17:14:27;;;;;;;3.30;1.52;;;;;;;21.24;75.11;101315.13;10435492;28;20391;-76
2023/06/22 17:19:29;;;;;;;3.15;1.55;;;;;;;21.17;75.24;101323.22;10437591;28;20037;-76
2023/06/22 17:24:35;;;;;;;3.95;2.10;;;;;;;21.06;75.18;101319.00;10420781;28;20049;-77
2023/06/22 17:29:37;;;;;;;3.97;1.65;;;;;;;20.90;74.88;101323.75;10439255;28;20295;-76
2023/06/22 17:34:39;;;;;;;4.50;1.48;;;;;;;20.82;74.92;101321.19;10440165;28;20127;-77
2023/06/22 17:39:51;;;;;;;2.30;1.23;;;;;;;20.74;74.83;101318.66;10438942;28;20497;-76
2023/06/22 17:45:00;;;;;;;2.72;1.30;;;;;;;20.73;75.21;101313.34;10433657;28;20045;-76
2023/06/22 17:50:07;;;;;;;2.28;1.20;;;;;;;20.78;75.43;101316.84;10436604;28;20041;-76
2023/06/22 17:55:08;;;;;;;2.65;1.10;;;;;;;20.75;75.15;101314.22;10418495;28;20786;-76
2023/06/22 18:00:12;;;;;;;2.08;1.10;;;;;;;20.70;75.57;101308.09;10438439;28;20041;-76
2023/06/22 18:05:28;;;;;;;3.45;1.38;;;;;;;20.65;76.17;101309.03;10440754;28;20086;-77
2023/06/22 18:10:32;;;;;;;4.20;1.92;;;;;;;20.47;77.82;101306.66;10442238;28;20422;-76
2023/06/22 18:15:37;;;;;;;2.42;1.15;;;;;;;20.32;78.65;101302.44;10443788;28;20051;-77
2023/06/22 18:20:40;;;;;;;4.80;1.98;;;;;;;20.19;79.79;101300.88;10444640;28;20041;-76
2023/06/22 18:25:44;;;;;;;2.33;1.38;;;;;;;20.14;80.63;101303.59;10441312;28;20056;-77
2023/06/22 18:30:46;;;;;;;5.50;1.75;;;;;;;20.12;80.87;101308.94;10437626;28;20526;-76
2023/06/22 18:35:51;;;;;;;5.63;1.83;;;;;;;20.10;81.22;101316.06;10442272;28;20053;-77
2023/06/22 18:40:53;;;;;;;3.17;1.45;;;;;;;20.13;81.45;101328.41;10441230;28;20502;-74
2023/06/22 18:45:54;;;;;;;8.05;2.40;;;;;;;20.10;82.45;101341.75;10440790;28;20045;-75
2023/06/22 18:51:10;;;;;;;5.03;2.05;;;;;;;19.95;83.46;101343.72;10441640;28;20059;-75
2023/06/22 18:56:14;;;;;;;4.53;1.75;;;;;;;19.76;84.56;101347.50;10439109;28;20133;-75
2023/06/22 19:01:17;;;;;;;9.25;2.17;;;;;;;19.59;85.23;101340.59;10440523;28;20051;-75
2023/06/22 19:06:56;;;;;;;5.38;1.60;;;;;;;19.42;86.26;101353.16;10440097;28;20056;-75
2023/06/22 19:12:20;;;;;;;4.45;1.85;;;;;;;19.27;86.85;101350.69;10411053;28;20037;-75
2023/06/22 19:17:22;;;;;;;4.43;1.58;;;;;;;19.13;87.55;101354.34;10414412;28;20148;-75
2023/06/22 19:22:44;;;;;;;3.08;1.60;;;;;;;19.02;88.29;101358.84;10426506;28;20037;-74
2023/06/22 19:27:47;;;;;;;6.30;1.83;;;;;;;18.86;88.48;101356.34;10422975;28;20052;-74
2023/06/22 19:32:49;;;;;;;5.28;1.85;;;;;;;18.76;89.08;101359.94;10421512;28;20477;-74
2023/06/22 19:37:51;;;;;;;2.80;1.67;;;;;;;18.67;89.68;101344.09;10441669;28;20553;-76
2023/06/22 19:42:56;;;;;;;4.00;1.40;;;;;;;18.63;90.32;101355.59;10440061;28;20118;-74
2023/06/22 19:47:58;;;;;;;7.63;2.08;;;;;;;18.57;90.88;101351.25;10441534;28;20475;-74
2023/06/22 19:53:00;;;;;;;4.00;1.65;;;;;;;18.57;91.58;101345.03;10440650;28;20736;-75
2023/06/22 19:58:01;;;;;;;3.08;1.60;;;;;;;18.55;91.83;101342.41;10442201;28;20068;-75
2023/06/22 20:03:08;;;;;;;5.70;1.77;;;;;;;18.50;92.31;101337.13;10439732;28;20049;-75
2023/06/22 20:08:14;;;;;;;3.33;1.63;;;;;;;18.42;93.08;101335.41;10440552;28;20561;-75
2023/06/22 20:13:22;;;;;;;3.50;1.73;;;;;;;18.42;93.21;101328.38;10440781;28;20250;-75
2023/06/22 20:18:27;;;;;;;5.53;1.90;;;;;;;18.41;93.82;101320.44;10439999;28;20418;-75
2023/06/22 20:23:28;;;;;;;4.80;1.73;;;;;;;18.35;94.09;101326.66;10441241;28;20128;-75
2023/06/22 20:28:30;;;;;;;9.52;1.83;;;;;;;18.34;94.34;101306.31;10439569;28;20033;-75
2023/06/22 20:33:32;;;;;;;3.85;1.77;;;;;;;18.34;94.60;101304.53;10421924;28;20110;-75
2023/06/22 20:38:35;;;;;;;10.65;3.35;;;;;;;18.36;94.66;101307.19;10440407;28;20041;-75
2023/06/22 20:43:38;;;;;;;3.88;2.20;;;;;;;18.33;94.82;101301.91;10440778;28;20049;-75
2023/06/22 20:48:40;;;;;;;4.10;2.20;;;;;;;18.35;95.35;101297.47;10439633;28;20068;-74
2023/06/22 20:53:41;;;;;;;5.70;2.50;;;;;;;18.28;95.27;101309.00;10438450;28;20044;-74
2023/06/22 20:58:43;;;;;;;7.05;3.67;;;;;;;18.18;95.14;101310.84;10439506;28;20048;-75
2023/06/22 21:03:44;;;;;;;4.90;2.60;;;;;;;18.17;95.50;101317.03;10434428;28;20049;-75
2023/06/22 21:08:46;;;;;;;5.55;2.60;;;;;;;18.12;95.49;101318.81;10440531;28;21489;-75
2023/06/22 21:13:48;;;;;;;7.70;3.20;;;;;;;18.04;95.69;101318.84;10438410;28;20072;-74
2023/06/22 21:18:49;;;;;;;3.80;2.25;;;;;;;17.92;95.60;101313.63;10438645;28;20132;-74
2023/06/22 21:23:51;;;;;;;5.05;2.20;;;;;;;17.83;95.54;101310.13;10437299;28;20133;-75
2023/06/22 21:28:53;;;;;;;4.13;1.70;;;;;;;17.74;95.39;101328.69;10447077;28;20045;-75
2023/06/22 21:33:54;;;;;;;3.60;1.63;;;;;;;17.63;95.48;101330.50;10445845;28;20067;-75
2023/06/22 21:38:56;;;;;;;4.85;2.38;;;;;;;17.54;95.51;101330.53;10447155;28;20082;-75
2023/06/22 21:43:57;;;;;;;9.57;2.50;;;;;;;17.47;95.60;101341.16;10446929;28;20069;-75
2023/06/22 21:48:59;;;;;;;4.78;2.42;;;;;;;17.42;95.55;101345.56;10446729;28;20094;-75
2023/06/22 21:54:01;;;;;;;4.50;2.20;;;;;;;17.36;95.67;101332.34;10445288;28;20052;-74
2023/06/22 21:59:02;;;;;;;5.55;2.65;;;;;;;17.31;95.74;101312.94;10445716;28;20079;-75
2023/06/22 22:04:06;;;;;;;6.22;2.50;;;;;;;17.26;95.77;101304.13;10446851;28;20068;-76
2023/06/22 22:09:08;;;;;;;4.78;2.08;;;;;;;17.18;95.83;101300.63;10445690;28;20045;-76
2023/06/22 22:14:10;;;;;;;5.43;1.90;;;;;;;17.10;95.88;101300.66;10446060;28;20467;-76
2023/06/22 22:19:13;;;;;;;6.03;1.88;;;;;;;17.05;95.76;101292.69;10445195;28;20055;-74
2023/06/22 22:24:15;;;;;;;5.03;2.05;;;;;;;17.06;95.88;101297.09;10444452;28;20588;-75
2023/06/22 22:29:16;;;;;;;3.50;2.15;;;;;;;17.02;95.84;101305.06;10445723;28;20046;-75
2023/06/22 22:34:18;;;;;;;6.00;3.03;;;;;;;16.91;95.71;101313.00;10445686;28;20507;-76
2023/06/22 22:39:30;;;;;;;5.18;2.60;;;;;;;16.91;95.56;101310.34;10443509;28;20047;-76
2023/06/22 22:44:32;;;;;;;13.18;3.20;;;;;;;16.89;95.38;101301.53;10475624;28;21008;-76
2023/06/22 22:49:34;;;;;;;3.45;2.05;;;;;;;16.90;95.42;101308.59;10443932;28;20522;-75
2023/06/22 22:54:35;;;;;;;3.97;2.35;;;;;;;16.86;95.35;101335.88;10441718;28;20037;-74
2023/06/22 22:59:37;;;;;;;5.32;2.45;;;;;;;16.85;95.20;101344.72;10443166;28;20597;-75
2023/06/22 23:04:40;;;;;;;6.07;2.95;;;;;;;16.88;95.17;101365.91;10444103;28;20098;-74
2023/06/22 23:09:41;;;;;;;4.38;2.05;;;;;;;16.87;95.27;101374.72;10443102;28;20043;-75